Ellendale, Minnesota
Current Conditions -  °F | °C
As of 2:53 AM on Sunday 23 Nov 2014 (Local Time) from KAEL Reporting Station
Overcast Overcast  
Wind Chill: 52°   Ceiling: 800
Heat Index: 52°   Visibility: 7mi
Dew Point: 52°   Wind: 13mph
Humidity: 100%   Direction: 200°SSW
Pressure: 29.5"   Gusts: 18mph
Location:  43.87°N, 93.3°W
Report Text: KAEL 230853Z AUTO 20011G16KT 7SM OVC008 11/11 A2950 RMK AO2
Loading
Personal Weather Stations






























Interactive Weather Map New forecast layout! Learn more

10-Day Weather Forecast

Advertisements
Track Severe Weather on mobile